createdAt,value
2023-02-19T00:01:53.788Z,9.65
2023-02-19T00:04:22.096Z,10.20
2023-02-19T00:06:48.840Z,9.88
2023-02-19T00:09:19.749Z,8.98
2023-02-19T00:11:46.574Z,11.70
2023-02-19T00:14:23.610Z,11.65
2023-02-19T00:16:50.383Z,10.40
2023-02-19T00:19:19.682Z,12.23
2023-02-19T00:21:46.521Z,11.80
2023-02-19T00:24:16.236Z,16.88
2023-02-19T00:26:50.571Z,9.90
2023-02-19T00:29:22.014Z,12.65
2023-02-19T00:31:51.336Z,10.80
2023-02-19T00:34:20.935Z,9.48
2023-02-19T00:36:51.812Z,11.65
2023-02-19T00:39:24.604Z,11.52
2023-02-19T00:41:51.201Z,11.25
2023-02-19T00:44:17.796Z,11.18
2023-02-19T00:46:51.034Z,42.55
2023-02-19T00:49:22.946Z,67.07
2023-02-19T00:51:55.824Z,76.72
2023-02-19T00:54:24.969Z,87.57
2023-02-19T00:57:15.506Z,96.88
2023-02-19T00:59:45.540Z,99.15
2023-02-19T01:02:12.129Z,96.88
2023-02-19T01:04:38.832Z,97.30
2023-02-19T01:07:05.400Z,96.32
2023-02-19T01:09:37.565Z,105.97
2023-02-19T01:12:07.530Z,110.88
2023-02-19T01:14:36.651Z,103.10
2023-02-19T01:17:06.718Z,108.78
2023-02-19T01:19:38.064Z,104.63
2023-02-19T01:22:07.398Z,95.47
2023-02-19T01:24:34.029Z,106.90
2023-02-19T01:27:00.875Z,101.63
2023-02-19T01:29:27.507Z,97.40
2023-02-19T01:34:43.215Z,102.05
2023-02-19T01:37:12.413Z,102.32
2023-02-19T01:39:39.482Z,102.05
2023-02-19T01:42:15.011Z,98.95
2023-02-19T01:44:47.731Z,102.90
2023-02-19T01:47:19.845Z,97.38
2023-02-19T01:52:40.915Z,95.03
2023-02-19T01:57:54.278Z,96.57
2023-02-19T02:00:29.127Z,104.55
2023-02-19T02:03:01.280Z,101.30
2023-02-19T02:08:30.658Z,102.38
2023-02-19T02:10:58.005Z,102.55
2023-02-19T02:13:24.763Z,108.43
2023-02-19T02:16:13.913Z,103.30
2023-02-19T02:18:49.366Z,99.75
2023-02-19T02:21:53.486Z,105.68
2023-02-19T02:24:47.883Z,105.35
2023-02-19T02:27:41.229Z,102.13
2023-02-19T02:30:33.053Z,109.60
2023-02-19T02:33:12.403Z,104.22
2023-02-19T02:36:17.242Z,100.82
2023-02-19T02:38:49.215Z,94.22
2023-02-19T02:41:16.350Z,103.57
2023-02-19T02:43:42.978Z,95.88
2023-02-19T02:46:18.573Z,102.40
2023-02-19T02:49:02.905Z,96.72
2023-02-19T02:51:36.407Z,83.25
2023-02-19T02:54:28.786Z,73.47
2023-02-19T02:59:39.753Z,72.55
2023-02-19T03:02:17.663Z,77.32
2023-02-19T03:05:08.438Z,71.45
2023-02-19T03:10:40.118Z,64.07
2023-02-19T03:13:23.222Z,62.15
2023-02-19T03:16:24.586Z,60.67
2023-02-19T03:18:54.539Z,57.15
2023-02-19T03:21:23.942Z,59.15
2023-02-19T03:23:51.265Z,54.90
2023-02-19T03:26:19.312Z,54.03
2023-02-19T03:28:50.248Z,55.03
2023-02-19T03:31:26.173Z,52.88
2023-02-19T03:33:59.919Z,52.90
2023-02-19T03:36:41.396Z,54.58
2023-02-19T03:39:12.966Z,50.28
2023-02-19T03:41:50.775Z,54.17
2023-02-19T03:44:52.941Z,55.55
2023-02-19T03:47:30.417Z,58.90
2023-02-19T03:50:15.725Z,58.58
2023-02-19T03:53:17.114Z,63.53
2023-02-19T03:56:31.858Z,64.13
2023-02-19T03:59:24.020Z,57.42
2023-02-19T04:02:09.106Z,60.50
2023-02-19T04:04:52.741Z,56.83
2023-02-19T04:07:19.650Z,60.47
2023-02-19T04:09:49.984Z,50.63
2023-02-19T04:12:18.233Z,48.38
2023-02-19T04:15:02.228Z,50.30
2023-02-19T04:17:55.724Z,45.63
2023-02-19T04:20:32.099Z,41.22
2023-02-19T04:23:17.476Z,41.20
2023-02-19T04:25:50.680Z,37.85
2023-02-19T04:28:24.101Z,41.08
2023-02-19T04:33:17.239Z,37.35
2023-02-19T04:35:52.695Z,34.05
2023-02-19T04:38:21.640Z,40.58
2023-02-19T04:40:48.238Z,33.80
2023-02-19T04:43:26.766Z,29.35
2023-02-19T04:45:58.829Z,31.25
2023-02-19T04:51:10.501Z,29.75
2023-02-19T04:53:42.581Z,34.53
2023-02-19T04:56:20.146Z,31.48
2023-02-19T04:58:46.693Z,34.50
2023-02-19T05:01:18.049Z,32.25
2023-02-19T05:03:47.670Z,33.40
2023-02-19T05:06:17.370Z,31.13
2023-02-19T05:08:54.687Z,30.70
2023-02-19T05:11:21.284Z,31.20
2023-02-19T05:13:55.785Z,35.55
2023-02-19T05:16:32.203Z,30.88
2023-02-19T05:18:59.041Z,30.50
2023-02-19T05:21:27.835Z,31.80
2023-02-19T05:23:54.419Z,30.25
2023-02-19T05:26:30.870Z,32.05
2023-02-19T05:29:01.465Z,29.65
2023-02-19T05:31:30.643Z,28.55
2023-02-19T05:33:57.487Z,33.45
2023-02-19T05:36:27.038Z,32.00
2023-02-19T05:38:55.486Z,31.98
2023-02-19T05:41:30.758Z,33.58
2023-02-19T05:44:00.698Z,33.42
2023-02-19T05:46:35.747Z,32.55
2023-02-19T05:49:02.418Z,30.92
2023-02-19T05:51:29.273Z,32.60
2023-02-19T05:54:08.737Z,33.15
2023-02-19T05:56:45.229Z,32.78
2023-02-19T05:59:24.961Z,34.13
2023-02-19T06:01:53.112Z,30.58
2023-02-19T06:04:22.511Z,33.55
2023-02-19T06:06:49.534Z,32.30
2023-02-19T06:09:18.860Z,33.80
2023-02-19T06:11:54.543Z,32.92
2023-02-19T06:14:24.354Z,31.70
2023-02-19T06:16:50.969Z,34.72
2023-02-19T06:19:17.553Z,35.17
2023-02-19T06:21:56.718Z,32.00
2023-02-19T06:24:24.415Z,33.38
2023-02-19T06:26:53.313Z,36.17
2023-02-19T06:29:26.108Z,33.38
2023-02-19T06:31:52.730Z,35.65
2023-02-19T06:34:21.642Z,34.88
2023-02-19T06:37:02.553Z,35.00
2023-02-19T06:39:29.104Z,38.00
2023-02-19T06:41:56.672Z,36.80
2023-02-19T06:44:23.517Z,38.58
2023-02-19T06:46:55.387Z,34.25
2023-02-19T06:49:31.346Z,36.33
2023-02-19T06:52:04.499Z,36.47
2023-02-19T06:54:37.251Z,38.38
2023-02-19T06:57:17.986Z,36.72
2023-02-19T06:59:55.774Z,36.03
2023-02-19T07:02:24.612Z,33.03
2023-02-19T07:04:56.206Z,34.00
2023-02-19T07:07:30.149Z,33.70
2023-02-19T07:10:10.438Z,30.25
2023-02-19T07:12:39.334Z,35.08
2023-02-19T07:15:17.638Z,34.58
2023-02-19T07:17:47.250Z,37.38
2023-02-19T07:20:15.142Z,37.70
2023-02-19T07:22:41.737Z,32.92
2023-02-19T07:25:17.547Z,35.80
2023-02-19T07:30:24.615Z,27.02
2023-02-19T07:32:56.259Z,39.05
2023-02-19T07:35:29.935Z,26.02
2023-02-19T07:38:02.126Z,30.95
2023-02-19T07:40:28.810Z,31.63
2023-02-19T07:42:57.181Z,28.88
2023-02-19T07:45:23.748Z,30.40
2023-02-19T07:47:57.394Z,27.40
2023-02-19T07:50:26.680Z,23.27
2023-02-19T07:52:56.258Z,34.13
2023-02-19T07:55:22.838Z,35.05
2023-02-19T07:57:55.028Z,32.13
2023-02-19T08:00:21.612Z,33.42
2023-02-19T08:02:48.191Z,27.27
2023-02-19T08:05:14.849Z,27.58
2023-02-19T08:07:45.528Z,32.80
2023-02-19T08:10:13.498Z,33.53
2023-02-19T08:12:40.209Z,31.58
2023-02-19T08:15:09.436Z,26.48
2023-02-19T08:17:43.604Z,24.90
2023-02-19T08:20:15.891Z,27.38
2023-02-19T08:22:42.533Z,28.52
2023-02-19T08:25:18.854Z,26.15
2023-02-19T08:27:56.537Z,30.10
2023-02-19T08:30:23.513Z,27.80
2023-02-19T08:32:52.663Z,32.90
2023-02-19T08:35:32.483Z,26.58
2023-02-19T08:38:12.857Z,28.10
2023-02-19T08:40:46.163Z,26.38
2023-02-19T08:43:16.240Z,27.77
2023-02-19T08:45:45.097Z,30.20
2023-02-19T08:48:15.968Z,28.48
2023-02-19T08:50:42.592Z,31.58
2023-02-19T08:53:15.194Z,35.35
2023-02-19T08:55:43.957Z,30.42
2023-02-19T08:58:19.210Z,28.73
2023-02-19T09:01:14.393Z,33.72
2023-02-19T09:03:41.668Z,35.65
2023-02-19T09:06:08.551Z,30.17
2023-02-19T09:08:35.686Z,28.02
2023-02-19T09:11:07.516Z,27.67
2023-02-19T09:13:34.391Z,31.33
2023-02-19T09:16:08.041Z,28.58
2023-02-19T09:18:34.913Z,30.90
2023-02-19T09:21:07.316Z,29.52
2023-02-19T09:23:36.651Z,30.73
2023-02-19T09:26:08.537Z,32.42
2023-02-19T09:28:35.847Z,32.70
2023-02-19T09:31:07.346Z,26.58
2023-02-19T09:33:33.973Z,27.05
2023-02-19T09:36:06.805Z,25.13
2023-02-19T09:38:36.352Z,26.60
2023-02-19T09:41:33.270Z,26.10
2023-02-19T09:44:04.594Z,25.27
2023-02-19T09:46:47.446Z,22.95
2023-02-19T09:49:36.191Z,23.65
2023-02-19T09:52:14.885Z,24.25
2023-02-19T09:54:42.582Z,29.17
2023-02-19T09:57:20.960Z,25.73
2023-02-19T09:59:53.486Z,26.90
2023-02-19T10:02:32.426Z,26.05
2023-02-19T10:05:12.588Z,242.10
2023-02-19T10:07:52.984Z,32.17
2023-02-19T10:10:22.343Z,26.20
2023-02-19T10:12:53.265Z,19.98
2023-02-19T10:15:32.103Z,21.00
2023-02-19T10:17:59.798Z,32.13
2023-02-19T10:20:32.973Z,25.33
2023-02-19T10:23:09.093Z,43.58
2023-02-19T10:25:46.854Z,23.73
2023-02-19T10:28:17.643Z,22.73
2023-02-19T10:30:47.867Z,23.42
2023-02-19T10:33:16.880Z,26.48
2023-02-19T10:36:05.583Z,23.83
2023-02-19T10:38:45.495Z,23.15
2023-02-19T10:41:21.689Z,21.60
2023-02-19T10:44:19.034Z,22.77
2023-02-19T10:46:58.575Z,26.38
2023-02-19T10:49:40.199Z,23.70
2023-02-19T10:52:21.098Z,24.88
2023-02-19T10:54:59.650Z,22.77
2023-02-19T11:00:15.280Z,21.88
2023-02-19T11:02:43.934Z,22.45
2023-02-19T11:05:13.319Z,23.48
2023-02-19T11:07:55.857Z,22.75
2023-02-19T11:10:26.280Z,23.80
2023-02-19T11:12:59.134Z,21.48
2023-02-19T11:15:42.660Z,25.60
2023-02-19T11:18:14.110Z,22.75
2023-02-19T11:21:00.094Z,22.58
2023-02-19T11:23:34.189Z,21.52
2023-02-19T11:26:11.653Z,20.80
2023-02-19T11:28:45.412Z,22.27
2023-02-19T11:31:26.896Z,25.48
2023-02-19T11:34:24.210Z,26.55
2023-02-19T11:37:10.930Z,22.42
2023-02-19T11:39:46.902Z,24.33
2023-02-19T11:42:41.445Z,21.45
2023-02-19T11:45:35.782Z,22.42
2023-02-19T11:48:42.675Z,21.80
2023-02-19T11:51:17.074Z,24.73
2023-02-19T11:54:18.949Z,22.55
2023-02-19T11:57:01.510Z,23.02
2023-02-19T11:59:47.462Z,20.88
2023-02-19T12:02:28.668Z,23.20
2023-02-19T12:05:18.375Z,21.80
2023-02-19T12:08:22.397Z,20.42
2023-02-19T12:11:36.625Z,21.77
2023-02-19T12:14:34.087Z,30.00
2023-02-19T12:17:04.012Z,20.50
2023-02-19T12:19:36.438Z,20.65
2023-02-19T12:22:24.776Z,21.00
2023-02-19T12:25:21.634Z,21.25
2023-02-19T12:28:11.711Z,22.35
2023-02-19T12:31:01.853Z,24.50
2023-02-19T12:33:49.632Z,21.83
2023-02-19T12:36:37.651Z,22.65
2023-02-19T12:39:28.446Z,21.42
2023-02-19T12:42:17.966Z,23.92
2023-02-19T12:45:10.493Z,22.15
2023-02-19T12:47:58.818Z,24.42
2023-02-19T12:50:27.113Z,20.85
2023-02-19T12:53:39.578Z,23.25
2023-02-19T12:56:33.440Z,21.75
2023-02-19T12:59:02.233Z,22.35
2023-02-19T13:01:35.922Z,22.48
2023-02-19T13:04:44.470Z,22.33
2023-02-19T13:07:42.058Z,23.45
2023-02-19T13:10:44.927Z,23.27
2023-02-19T13:13:31.322Z,23.73
2023-02-19T13:16:30.083Z,23.42
2023-02-19T13:19:01.174Z,21.50
2023-02-19T13:21:56.489Z,23.00
2023-02-19T13:24:35.093Z,23.80
2023-02-19T13:27:25.781Z,21.95
2023-02-19T13:30:11.422Z,21.90
2023-02-19T13:33:19.288Z,20.38
2023-02-19T13:36:01.271Z,23.77
2023-02-19T13:38:30.192Z,20.92
2023-02-19T13:40:58.783Z,22.38
2023-02-19T13:43:31.025Z,22.55
2023-02-19T13:46:04.827Z,25.52
2023-02-19T13:48:36.896Z,26.40
2023-02-19T13:53:42.858Z,23.45
2023-02-19T13:56:38.256Z,22.92
2023-02-19T13:59:42.260Z,23.08
2023-02-19T14:02:29.704Z,20.48
2023-02-19T14:05:03.565Z,21.92
2023-02-19T14:07:57.369Z,19.77
2023-02-19T14:10:54.110Z,22.55
2023-02-19T14:13:56.121Z,23.00
2023-02-19T14:16:49.845Z,20.63
2023-02-19T14:19:45.777Z,23.30
2023-02-19T14:22:53.846Z,19.65
2023-02-19T14:25:52.630Z,21.17
2023-02-19T14:28:40.446Z,22.27
2023-02-19T14:31:22.804Z,20.48
2023-02-19T14:34:16.185Z,21.20
2023-02-19T14:37:00.735Z,19.80
2023-02-19T14:39:31.780Z,19.92
2023-02-19T14:42:01.641Z,20.13
2023-02-19T14:44:53.170Z,21.98
2023-02-19T14:47:22.933Z,17.95
2023-02-19T14:50:03.855Z,22.45
2023-02-19T14:52:37.980Z,24.67
2023-02-19T14:55:29.461Z,18.80
2023-02-19T14:57:59.912Z,22.30
2023-02-19T15:00:48.414Z,24.58
2023-02-19T15:03:28.841Z,20.25
2023-02-19T15:06:23.618Z,19.92
2023-02-19T15:08:59.358Z,22.90
2023-02-19T15:11:35.616Z,18.83
2023-02-19T15:14:32.464Z,17.25
2023-02-19T15:17:17.047Z,18.30
2023-02-19T15:19:45.248Z,18.98
2023-02-19T15:22:32.721Z,18.02
2023-02-19T15:25:07.056Z,18.98
2023-02-19T15:27:38.890Z,20.33
2023-02-19T15:30:24.341Z,19.03
2023-02-19T15:32:59.738Z,18.88
2023-02-19T15:35:40.888Z,17.08
2023-02-19T15:38:18.238Z,18.15
2023-02-19T15:40:52.930Z,22.88
2023-02-19T15:43:44.639Z,15.38
2023-02-19T15:46:23.069Z,17.57
2023-02-19T15:48:58.782Z,15.68
2023-02-19T15:54:39.267Z,18.13
2023-02-19T15:57:23.665Z,17.35
2023-02-19T16:00:41.694Z,16.40
2023-02-19T16:03:18.138Z,17.85
2023-02-19T16:05:45.425Z,15.85
2023-02-19T16:08:17.589Z,16.88
2023-02-19T16:10:58.001Z,15.75
2023-02-19T16:13:31.129Z,19.63
2023-02-19T16:16:09.940Z,16.30
2023-02-19T16:18:37.214Z,19.00
2023-02-19T16:21:18.461Z,19.25
2023-02-19T16:23:55.402Z,16.58
2023-02-19T16:26:25.279Z,18.83
2023-02-19T16:28:57.168Z,16.30
2023-02-19T16:31:24.347Z,20.02
2023-02-19T16:33:51.419Z,17.48
2023-02-19T16:36:33.335Z,17.17
2023-02-19T16:39:17.888Z,19.45
2023-02-19T16:41:49.408Z,16.92
2023-02-19T16:44:25.251Z,20.50
2023-02-19T16:47:09.770Z,17.10
2023-02-19T16:49:38.705Z,17.48
2023-02-19T16:52:11.587Z,20.10
2023-02-19T16:54:40.633Z,19.35
2023-02-19T16:57:16.393Z,17.48
2023-02-19T16:59:49.147Z,19.27
2023-02-19T17:02:31.038Z,18.77
2023-02-19T17:05:00.647Z,18.35
2023-02-19T17:07:29.881Z,20.73
2023-02-19T17:09:56.430Z,16.17
2023-02-19T17:12:23.075Z,23.42
2023-02-19T17:14:49.681Z,18.10
2023-02-19T17:17:16.201Z,18.27
2023-02-19T17:19:45.076Z,21.02
2023-02-19T17:22:14.200Z,20.80
2023-02-19T17:24:44.915Z,20.73
2023-02-19T17:27:14.730Z,24.35
2023-02-19T17:29:58.353Z,18.98
2023-02-19T17:32:27.631Z,24.95
2023-02-19T17:34:54.350Z,25.73
2023-02-19T17:37:20.978Z,30.80
2023-02-19T17:39:50.702Z,24.38
2023-02-19T17:42:19.825Z,24.73
2023-02-19T17:44:47.754Z,32.05
2023-02-19T17:47:14.377Z,33.67
2023-02-19T17:49:47.168Z,29.20
2023-02-19T17:52:25.509Z,38.25
2023-02-19T17:54:52.098Z,35.38
2023-02-19T17:57:18.875Z,33.72
2023-02-19T17:59:45.604Z,40.70
2023-02-19T18:02:12.193Z,35.17
2023-02-19T18:04:41.132Z,36.10
2023-02-19T18:07:12.576Z,40.90
2023-02-19T18:09:39.192Z,34.67
2023-02-19T18:12:07.803Z,33.88
2023-02-19T18:14:39.392Z,40.08
2023-02-19T18:17:06.834Z,37.97
2023-02-19T18:19:33.426Z,39.95
2023-02-19T18:21:59.988Z,38.92
2023-02-19T18:24:26.598Z,44.28
2023-02-19T18:26:53.209Z,41.60
2023-02-19T18:29:25.936Z,46.83
2023-02-19T18:31:59.875Z,42.95
2023-02-19T18:34:27.543Z,46.97
2023-02-19T18:37:00.002Z,39.65
2023-02-19T18:39:26.566Z,46.35
2023-02-19T18:41:55.908Z,38.08
2023-02-19T18:44:24.638Z,34.97
2023-02-19T18:46:51.679Z,43.17
2023-02-19T18:49:20.198Z,36.58
2023-02-19T18:51:50.001Z,40.08
2023-02-19T18:54:16.646Z,38.60
2023-02-19T18:56:47.296Z,37.35
2023-02-19T18:59:19.924Z,39.63
2023-02-19T19:01:54.844Z,36.28
2023-02-19T19:04:21.756Z,40.17
2023-02-19T19:06:48.369Z,40.83
2023-02-19T19:09:14.950Z,41.22
2023-02-19T19:11:48.193Z,44.05
2023-02-19T19:14:17.119Z,46.13
2023-02-19T19:16:46.494Z,39.33
2023-02-19T19:19:22.340Z,39.78
2023-02-19T19:22:01.159Z,42.65
2023-02-19T19:24:27.760Z,39.45
2023-02-19T19:26:54.340Z,45.22
2023-02-19T19:29:21.857Z,43.20
2023-02-19T19:31:59.972Z,41.63
2023-02-19T19:34:35.449Z,36.83
2023-02-19T19:37:04.743Z,37.28
2023-02-19T19:39:34.003Z,37.67
2023-02-19T19:42:00.619Z,41.08
2023-02-19T19:44:27.297Z,41.03
2023-02-19T19:46:53.876Z,39.13
2023-02-19T19:49:22.165Z,33.58
2023-02-19T19:51:49.690Z,36.70
2023-02-19T19:54:16.363Z,39.70
2023-02-19T19:56:45.459Z,36.80
2023-02-19T19:59:17.242Z,36.88
2023-02-19T20:01:53.897Z,40.55
2023-02-19T20:07:13.718Z,41.40
2023-02-19T20:09:49.228Z,41.22
2023-02-19T20:12:17.084Z,42.55
2023-02-19T20:14:49.958Z,43.50
2023-02-19T20:17:22.002Z,36.83
2023-02-19T20:22:23.698Z,43.00
2023-02-19T20:24:54.944Z,40.75
2023-02-19T20:27:22.601Z,42.25
2023-02-19T20:29:57.242Z,40.85
2023-02-19T20:32:40.598Z,42.42
2023-02-19T20:35:27.266Z,42.33
2023-02-19T20:38:00.352Z,42.95
2023-02-19T20:40:28.068Z,40.28
2023-02-19T20:43:00.663Z,44.35
2023-02-19T20:45:28.247Z,39.22
2023-02-19T20:47:54.896Z,40.40
2023-02-19T20:50:28.950Z,44.10
2023-02-19T20:52:58.323Z,40.28
2023-02-19T20:55:32.939Z,39.05
2023-02-19T20:58:02.296Z,39.90
2023-02-19T21:00:31.336Z,37.25
2023-02-19T21:03:07.704Z,37.30
2023-02-19T21:06:09.423Z,38.15
2023-02-19T21:08:41.004Z,37.63
2023-02-19T21:11:09.677Z,43.25
2023-02-19T21:13:52.917Z,45.58
2023-02-19T21:16:34.014Z,43.45
2023-02-19T21:19:03.944Z,44.85
2023-02-19T21:21:34.414Z,46.65
2023-02-19T21:24:04.394Z,43.85
2023-02-19T21:26:38.235Z,46.40
2023-02-19T21:29:06.081Z,44.97
2023-02-19T21:32:01.739Z,41.47
2023-02-19T21:34:52.374Z,45.20
2023-02-19T21:37:29.073Z,51.58
2023-02-19T21:40:01.645Z,46.65
2023-02-19T21:42:29.090Z,51.88
2023-02-19T21:44:58.316Z,42.88
2023-02-19T21:47:24.907Z,45.05
2023-02-19T21:49:57.120Z,44.08
2023-02-19T21:52:23.708Z,42.38
2023-02-19T21:55:09.161Z,44.10
2023-02-19T21:57:56.138Z,49.95
2023-02-19T22:00:43.718Z,51.13
2023-02-19T22:03:34.853Z,50.30
2023-02-19T22:06:24.208Z,51.17
2023-02-19T22:09:05.455Z,55.00
2023-02-19T22:11:55.918Z,43.63
2023-02-19T22:14:24.832Z,50.53
2023-02-19T22:17:13.586Z,51.78
2023-02-19T22:19:45.141Z,60.20
2023-02-19T22:22:14.025Z,62.28
2023-02-19T22:24:45.685Z,64.70
2023-02-19T22:27:18.714Z,65.85
2023-02-19T22:29:47.844Z,65.78
2023-02-19T22:32:14.554Z,71.80
2023-02-19T22:34:51.861Z,71.72
2023-02-19T22:37:29.141Z,50.40
2023-02-19T22:40:00.152Z,66.97
2023-02-19T22:42:35.658Z,69.03
2023-02-19T22:45:22.497Z,71.20
2023-02-19T22:47:49.147Z,73.03
2023-02-19T22:50:23.210Z,72.53
2023-02-19T22:52:50.483Z,70.50
2023-02-19T22:55:22.489Z,69.03
2023-02-19T22:57:50.808Z,72.38
2023-02-19T23:00:21.272Z,68.45
2023-02-19T23:02:54.396Z,64.10
2023-02-19T23:05:21.851Z,71.07
2023-02-19T23:07:50.997Z,58.33
2023-02-19T23:10:31.840Z,61.88
2023-02-19T23:13:17.875Z,68.80
2023-02-19T23:15:47.483Z,61.88
2023-02-19T23:18:24.941Z,59.53
2023-02-19T23:20:51.577Z,58.67
2023-02-19T23:23:21.161Z,58.40
2023-02-19T23:25:47.718Z,58.25
2023-02-19T23:28:28.685Z,60.35
2023-02-19T23:30:55.334Z,53.28
2023-02-19T23:33:22.086Z,55.42
2023-02-19T23:35:48.644Z,58.13
2023-02-19T23:38:19.231Z,53.25
2023-02-19T23:40:56.149Z,53.67
2023-02-19T23:43:28.413Z,52.00
2023-02-19T23:45:55.102Z,56.95
2023-02-19T23:48:21.748Z,51.47
2023-02-19T23:50:48.316Z,51.67
2023-02-19T23:53:14.903Z,53.75
2023-02-19T23:55:41.511Z,55.70
2023-02-19T23:58:11.109Z,51.13
